sensor_id;sensor_type;location;lat;lon;timestamp;pressure;altitude;pressure_sealevel;temperature;humidity
13690;BME280;6917;52.194;9.894;2023-04-29T00:00:00;99843.19;;;12.00;100.00
13690;BME280;6917;52.194;9.894;2023-04-29T00:02:25;99841.81;;;11.94;100.00
13690;BME280;6917;52.194;9.894;2023-04-29T00:04:52;99850.56;;;11.87;100.00
13690;BME280;6917;52.194;9.894;2023-04-29T00:07:18;99855.53;;;11.85;100.00
13690;BME280;6917;52.194;9.894;2023-04-29T00:09:43;99850.28;;;11.80;100.00
13690;BME280;6917;52.194;9.894;2023-04-29T00:12:09;99845.78;;;11.75;100.00
13690;BME280;6917;52.194;9.894;2023-04-29T00:14:35;99845.66;;;11.72;100.00
13690;BME280;6917;52.194;9.894;2023-04-29T00:17:00;99851.44;;;11.70;100.00
13690;BME280;6917;52.194;9.894;2023-04-29T00:19:25;99857.59;;;11.67;100.00
13690;BME280;6917;52.194;9.894;2023-04-29T00:21:51;99851.19;;;11.63;100.00
13690;BME280;6917;52.194;9.894;2023-04-29T00:24:18;99854.72;;;11.63;100.00
13690;BME280;6917;52.194;9.894;2023-04-29T00:26:44;99848.31;;;11.59;100.00
13690;BME280;6917;52.194;9.894;2023-04-29T00:29:09;99845.75;;;11.54;100.00
13690;BME280;6917;52.194;9.894;2023-04-29T00:31:34;99858.50;;;11.50;100.00
13690;BME280;6917;52.194;9.894;2023-04-29T00:34:01;99851.09;;;11.51;100.00
13690;BME280;6917;52.194;9.894;2023-04-29T00:36:26;99857.25;;;11.48;100.00
13690;BME280;6917;52.194;9.894;2023-04-29T00:38:52;99846.63;;;11.46;100.00
13690;BME280;6917;52.194;9.894;2023-04-29T00:41:17;99849.38;;;11.46;100.00
13690;BME280;6917;52.194;9.894;2023-04-29T00:43:43;99852.44;;;11.45;100.00
13690;BME280;6917;52.194;9.894;2023-04-29T00:46:09;99855.97;;;11.45;100.00
13690;BME280;6917;52.194;9.894;2023-04-29T00:48:34;99859.50;;;11.46;100.00
13690;BME280;6917;52.194;9.894;2023-04-29T00:50:59;99863.06;;;11.46;100.00
13690;BME280;6917;52.194;9.894;2023-04-29T00:53:25;99869.66;;;11.45;100.00
13690;BME280;6917;52.194;9.894;2023-04-29T00:55:51;99861.00;;;11.43;100.00
13690;BME280;6917;52.194;9.894;2023-04-29T00:58:17;99865.50;;;11.39;100.00
13690;BME280;6917;52.194;9.894;2023-04-29T01:00:42;99875.16;;;11.37;100.00
13690;BME280;6917;52.194;9.894;2023-04-29T01:03:08;99876.16;;;11.32;100.00
13690;BME280;6917;52.194;9.894;2023-04-29T01:05:34;99870.41;;;11.25;100.00
13690;BME280;6917;52.194;9.894;2023-04-29T01:08:13;99882.34;;;11.20;100.00
13690;BME280;6917;52.194;9.894;2023-04-29T01:10:46;99888.47;;;11.17;100.00
13690;BME280;6917;52.194;9.894;2023-04-29T01:13:17;99889.13;;;11.14;100.00
13690;BME280;6917;52.194;9.894;2023-04-29T01:16:08;99887.03;;;11.11;100.00
13690;BME280;6917;52.194;9.894;2023-04-29T01:18:40;99883.50;;;11.11;100.00
13690;BME280;6917;52.194;9.894;2023-04-29T01:21:08;99889.63;;;11.08;100.00
13690;BME280;6917;52.194;9.894;2023-04-29T01:23:33;99898.63;;;11.08;100.00
13690;BME280;6917;52.194;9.894;2023-04-29T01:25:58;99898.00;;;11.02;100.00
13690;BME280;6917;52.194;9.894;2023-04-29T01:28:49;99904.63;;;11.01;100.00
13690;BME280;6917;52.194;9.894;2023-04-29T01:31:24;99901.72;;;10.98;100.00
13690;BME280;6917;52.194;9.894;2023-04-29T01:36:49;99899.81;;;10.90;100.00
13690;BME280;6917;52.194;9.894;2023-04-29T01:39:40;99909.97;;;10.89;100.00
13690;BME280;6917;52.194;9.894;2023-04-29T01:42:17;99903.69;;;10.89;100.00
13690;BME280;6917;52.194;9.894;2023-04-29T01:44:48;99899.34;;;10.88;100.00
13690;BME280;6917;52.194;9.894;2023-04-29T01:47:14;99905.16;;;10.86;100.00
13690;BME280;6917;52.194;9.894;2023-04-29T01:49:39;99914.47;;;10.85;100.00
13690;BME280;6917;52.194;9.894;2023-04-29T01:52:05;99916.38;;;10.85;100.00
13690;BME280;6917;52.194;9.894;2023-04-29T01:54:31;99910.91;;;10.85;100.00
13690;BME280;6917;52.194;9.894;2023-04-29T01:57:01;99909.16;;;10.80;100.00
13690;BME280;6917;52.194;9.894;2023-04-29T01:59:26;99914.16;;;10.78;100.00
13690;BME280;6917;52.194;9.894;2023-04-29T02:01:51;99918.34;;;10.76;100.00
13690;BME280;6917;52.194;9.894;2023-04-29T02:04:17;99913.69;;;10.76;100.00
13690;BME280;6917;52.194;9.894;2023-04-29T02:06:42;99919.47;;;10.75;100.00
13690;BME280;6917;52.194;9.894;2023-04-29T02:09:08;99920.63;;;10.73;100.00
13690;BME280;6917;52.194;9.894;2023-04-29T02:11:33;99929.13;;;10.72;100.00
13690;BME280;6917;52.194;9.894;2023-04-29T02:13:59;99923.69;;;10.72;100.00
13690;BME280;6917;52.194;9.894;2023-04-29T02:16:24;99927.22;;;10.72;100.00
13690;BME280;6917;52.194;9.894;2023-04-29T02:18:49;99936.19;;;10.73;100.00
13690;BME280;6917;52.194;9.894;2023-04-29T02:21:15;99940.88;;;10.72;100.00
13690;BME280;6917;52.194;9.894;2023-04-29T02:23:40;99938.13;;;10.72;100.00
13690;BME280;6917;52.194;9.894;2023-04-29T02:26:05;99936.53;;;10.71;100.00
13690;BME280;6917;52.194;9.894;2023-04-29T02:28:32;99940.06;;;10.72;100.00
13690;BME280;6917;52.194;9.894;2023-04-29T02:30:59;99945.22;;;10.65;100.00
13690;BME280;6917;52.194;9.894;2023-04-29T02:33:24;99948.91;;;10.60;100.00
13690;BME280;6917;52.194;9.894;2023-04-29T02:35:49;99941.69;;;10.56;100.00
13690;BME280;6917;52.194;9.894;2023-04-29T02:38:14;99946.50;;;10.50;100.00
13690;BME280;6917;52.194;9.894;2023-04-29T02:40:44;99949.25;;;10.50;100.00
13690;BME280;6917;52.194;9.894;2023-04-29T02:43:10;99953.75;;;10.46;100.00
13690;BME280;6917;52.194;9.894;2023-04-29T02:45:36;99948.94;;;10.43;100.00
13690;BME280;6917;52.194;9.894;2023-04-29T02:48:02;99952.00;;;10.41;100.00
13690;BME280;6917;52.194;9.894;2023-04-29T02:50:27;99955.81;;;10.40;100.00
13690;BME280;6917;52.194;9.894;2023-04-29T02:52:53;99951.00;;;10.37;100.00
13690;BME280;6917;52.194;9.894;2023-04-29T02:55:18;99955.69;;;10.37;100.00
13690;BME280;6917;52.194;9.894;2023-04-29T02:57:44;99958.25;;;10.33;100.00
13690;BME280;6917;52.194;9.894;2023-04-29T03:00:09;99948.13;;;10.34;100.00
13690;BME280;6917;52.194;9.894;2023-04-29T03:02:35;99957.28;;;10.29;100.00
13690;BME280;6917;52.194;9.894;2023-04-29T03:05:01;99959.56;;;10.27;100.00
13690;BME280;6917;52.194;9.894;2023-04-29T03:07:26;99957.91;;;10.26;100.00
13690;BME280;6917;52.194;9.894;2023-04-29T03:09:54;99960.66;;;10.26;100.00
13690;BME280;6917;52.194;9.894;2023-04-29T03:12:20;99956.00;;;10.27;100.00
13690;BME280;6917;52.194;9.894;2023-04-29T03:14:45;99956.81;;;10.27;100.00
13690;BME280;6917;52.194;9.894;2023-04-29T03:17:10;99952.16;;;10.28;100.00
13690;BME280;6917;52.194;9.894;2023-04-29T03:19:36;99968.53;;;10.28;100.00
13690;BME280;6917;52.194;9.894;2023-04-29T03:22:01;99955.69;;;10.28;100.00
13690;BME280;6917;52.194;9.894;2023-04-29T03:24:26;99959.38;;;10.24;100.00
13690;BME280;6917;52.194;9.894;2023-04-29T03:26:52;99966.91;;;10.27;100.00
13690;BME280;6917;52.194;9.894;2023-04-29T03:29:17;99960.50;;;10.23;100.00
13690;BME280;6917;52.194;9.894;2023-04-29T03:31:42;99959.50;;;10.19;100.00
13690;BME280;6917;52.194;9.894;2023-04-29T03:34:08;99960.63;;;10.18;100.00
13690;BME280;6917;52.194;9.894;2023-04-29T03:36:34;99956.94;;;10.13;100.00
13690;BME280;6917;52.194;9.894;2023-04-29T03:38:59;99957.06;;;10.08;100.00
13690;BME280;6917;52.194;9.894;2023-04-29T03:41:25;99959.00;;;10.08;100.00
13690;BME280;6917;52.194;9.894;2023-04-29T03:43:50;99962.06;;;10.06;100.00
13690;BME280;6917;52.194;9.894;2023-04-29T03:46:15;99966.41;;;9.99;100.00
13690;BME280;6917;52.194;9.894;2023-04-29T03:48:41;99979.53;;;9.97;100.00
13690;BME280;6917;52.194;9.894;2023-04-29T03:51:06;99974.25;;;9.92;100.00
13690;BME280;6917;52.194;9.894;2023-04-29T03:53:33;99975.03;;;9.92;100.00
13690;BME280;6917;52.194;9.894;2023-04-29T03:55:59;99984.03;;;9.93;100.00
13690;BME280;6917;52.194;9.894;2023-04-29T03:58:24;99989.81;;;9.91;100.00
13690;BME280;6917;52.194;9.894;2023-04-29T04:00:49;99990.59;;;9.92;100.00
13690;BME280;6917;52.194;9.894;2023-04-29T04:03:15;99994.78;;;9.89;100.00
13690;BME280;6917;52.194;9.894;2023-04-29T04:05:40;100011.44;;;9.79;100.00
13690;BME280;6917;52.194;9.894;2023-04-29T04:08:06;100007.25;;;9.73;100.00
13690;BME280;6917;52.194;9.894;2023-04-29T04:10:31;100012.56;;;9.69;100.00
13690;BME280;6917;52.194;9.894;2023-04-29T04:12:57;100022.16;;;9.67;100.00
13690;BME280;6917;52.194;9.894;2023-04-29T04:15:22;100025.03;;;9.62;100.00
13690;BME280;6917;52.194;9.894;2023-04-29T04:17:47;100030.47;;;9.62;100.00
13690;BME280;6917;52.194;9.894;2023-04-29T04:20:13;100034.31;;;9.61;100.00
13690;BME280;6917;52.194;9.894;2023-04-29T04:22:38;100047.97;;;9.61;100.00
13690;BME280;6917;52.194;9.894;2023-04-29T04:25:04;100045.88;;;9.58;100.00
13690;BME280;6917;52.194;9.894;2023-04-29T04:27:29;100047.00;;;9.57;100.00
13690;BME280;6917;52.194;9.894;2023-04-29T04:29:55;100060.44;;;9.53;100.00
13690;BME280;6917;52.194;9.894;2023-04-29T04:32:21;100060.75;;;9.51;100.00
13690;BME280;6917;52.194;9.894;2023-04-29T04:34:48;100064.75;;;9.54;100.00
13690;BME280;6917;52.194;9.894;2023-04-29T04:37:13;100070.84;;;9.51;100.00
13690;BME280;6917;52.194;9.894;2023-04-29T04:39:38;100064.09;;;9.48;100.00
13690;BME280;6917;52.194;9.894;2023-04-29T04:42:04;100074.53;;;9.46;100.00
13690;BME280;6917;52.194;9.894;2023-04-29T04:44:29;100082.38;;;9.48;100.00
13690;BME280;6917;52.194;9.894;2023-04-29T04:46:55;100075.66;;;9.45;100.00
13690;BME280;6917;52.194;9.894;2023-04-29T04:49:22;100093.44;;;9.43;100.00
13690;BME280;6917;52.194;9.894;2023-04-29T04:51:49;100088.66;;;9.48;100.00
13690;BME280;6917;52.194;9.894;2023-04-29T04:54:14;100089.59;;;9.44;100.00
13690;BME280;6917;52.194;9.894;2023-04-29T04:56:39;100102.44;;;9.43;100.00
13690;BME280;6917;52.194;9.894;2023-04-29T04:59:05;100099.06;;;9.46;100.00
13690;BME280;6917;52.194;9.894;2023-04-29T05:01:30;100096.50;;;9.50;100.00
13690;BME280;6917;52.194;9.894;2023-04-29T05:03:55;100103.56;;;9.51;100.00
13690;BME280;6917;52.194;9.894;2023-04-29T05:06:21;100115.75;;;9.45;100.00
13690;BME280;6917;52.194;9.894;2023-04-29T05:08:46;100117.50;;;9.41;100.00
13690;BME280;6917;52.194;9.894;2023-04-29T05:11:19;100114.88;;;9.36;100.00
13690;BME280;6917;52.194;9.894;2023-04-29T05:13:44;100128.19;;;9.37;100.00
13690;BME280;6917;52.194;9.894;2023-04-29T05:16:10;100132.97;;;9.32;100.00
13690;BME280;6917;52.194;9.894;2023-04-29T05:18:35;100127.34;;;9.28;100.00
13690;BME280;6917;52.194;9.894;2023-04-29T05:21:01;100128.31;;;9.32;100.00
13690;BME280;6917;52.194;9.894;2023-04-29T05:23:26;100125.91;;;9.31;100.00
13690;BME280;6917;52.194;9.894;2023-04-29T05:25:52;100138.44;;;9.32;100.00
13690;BME280;6917;52.194;9.894;2023-04-29T05:28:17;100135.38;;;9.33;100.00
13690;BME280;6917;52.194;9.894;2023-04-29T05:30:43;100138.13;;;9.33;100.00
13690;BME280;6917;52.194;9.894;2023-04-29T05:33:08;100142.44;;;9.34;100.00
13690;BME280;6917;52.194;9.894;2023-04-29T05:35:34;100153.19;;;9.31;100.00
13690;BME280;6917;52.194;9.894;2023-04-29T05:37:59;100150.44;;;9.31;100.00
13690;BME280;6917;52.194;9.894;2023-04-29T05:40:24;100156.84;;;9.26;100.00
13690;BME280;6917;52.194;9.894;2023-04-29T05:42:50;100157.44;;;9.23;100.00
13690;BME280;6917;52.194;9.894;2023-04-29T05:45:16;100153.41;;;9.20;100.00
13690;BME280;6917;52.194;9.894;2023-04-29T05:47:41;100168.47;;;9.18;100.00
13690;BME280;6917;52.194;9.894;2023-04-29T05:50:07;100169.59;;;9.17;100.00
13690;BME280;6917;52.194;9.894;2023-04-29T05:52:32;100164.13;;;9.17;100.00
13690;BME280;6917;52.194;9.894;2023-04-29T05:54:57;100171.00;;;9.14;100.00
13690;BME280;6917;52.194;9.894;2023-04-29T05:57:23;100178.56;;;9.17;100.00
13690;BME280;6917;52.194;9.894;2023-04-29T05:59:48;100169.19;;;9.10;100.00
13690;BME280;6917;52.194;9.894;2023-04-29T06:02:13;100180.09;;;9.10;100.00
13690;BME280;6917;52.194;9.894;2023-04-29T06:04:39;100188.28;;;9.10;100.00
13690;BME280;6917;52.194;9.894;2023-04-29T06:07:05;100196.56;;;9.05;100.00
13690;BME280;6917;52.194;9.894;2023-04-29T06:09:33;100197.19;;;9.02;100.00
13690;BME280;6917;52.194;9.894;2023-04-29T06:12:00;100200.72;;;9.02;100.00
13690;BME280;6917;52.194;9.894;2023-04-29T06:14:25;100203.13;;;9.04;100.00
13690;BME280;6917;52.194;9.894;2023-04-29T06:16:51;100210.91;;;8.97;100.00
13690;BME280;6917;52.194;9.894;2023-04-29T06:19:16;100208.25;;;8.83;100.00
13690;BME280;6917;52.194;9.894;2023-04-29T06:21:41;100223.38;;;8.75;100.00
13690;BME280;6917;52.194;9.894;2023-04-29T06:24:07;100226.56;;;8.91;100.00
13690;BME280;6917;52.194;9.894;2023-04-29T06:26:32;100233.00;;;8.95;100.00
13690;BME280;6917;52.194;9.894;2023-04-29T06:28:57;100232.03;;;8.91;100.00
13690;BME280;6917;52.194;9.894;2023-04-29T06:31:23;100234.94;;;8.94;100.00
13690;BME280;6917;52.194;9.894;2023-04-29T06:33:48;100230.50;;;8.99;100.00
13690;BME280;6917;52.194;9.894;2023-04-29T06:36:13;100234.22;;;9.03;100.00
13690;BME280;6917;52.194;9.894;2023-04-29T06:38:38;100244.44;;;8.97;100.00
13690;BME280;6917;52.194;9.894;2023-04-29T06:41:04;100247.34;;;9.01;100.00
13690;BME280;6917;52.194;9.894;2023-04-29T06:43:29;100255.03;;;8.99;100.00
13690;BME280;6917;52.194;9.894;2023-04-29T06:45:56;100254.50;;;8.97;100.00
13690;BME280;6917;52.194;9.894;2023-04-29T06:48:22;100262.47;;;9.07;100.00
13690;BME280;6917;52.194;9.894;2023-04-29T06:50:57;100264.56;;;9.10;100.00
13690;BME280;6917;52.194;9.894;2023-04-29T06:53:23;100269.66;;;9.03;100.00
13690;BME280;6917;52.194;9.894;2023-04-29T06:55:48;100279.63;;;8.93;100.00
13690;BME280;6917;52.194;9.894;2023-04-29T06:58:15;100294.78;;;9.00;100.00
13690;BME280;6917;52.194;9.894;2023-04-29T07:00:48;100294.88;;;8.94;100.00
13690;BME280;6917;52.194;9.894;2023-04-29T07:03:15;100303.34;;;8.93;100.00
13690;BME280;6917;52.194;9.894;2023-04-29T07:05:40;100311.53;;;8.93;100.00
13690;BME280;6917;52.194;9.894;2023-04-29T07:08:06;100305.47;;;8.96;100.00
13690;BME280;6917;52.194;9.894;2023-04-29T07:10:32;100316.66;;;8.94;100.00
13690;BME280;6917;52.194;9.894;2023-04-29T07:12:58;100321.13;;;8.90;100.00
13690;BME280;6917;52.194;9.894;2023-04-29T07:15:25;100341.63;;;8.88;100.00
13690;BME280;6917;52.194;9.894;2023-04-29T07:17:50;100336.84;;;8.93;100.00
13690;BME280;6917;52.194;9.894;2023-04-29T07:20:16;100344.94;;;8.99;100.00
13690;BME280;6917;52.194;9.894;2023-04-29T07:22:41;100353.31;;;9.02;100.00
13690;BME280;6917;52.194;9.894;2023-04-29T07:25:07;100356.84;;;9.03;100.00
13690;BME280;6917;52.194;9.894;2023-04-29T07:27:33;100357.16;;;9.01;100.00
13690;BME280;6917;52.194;9.894;2023-04-29T07:30:00;100365.53;;;9.05;100.00
13690;BME280;6917;52.194;9.894;2023-04-29T07:32:25;100372.28;;;9.07;100.00
13690;BME280;6917;52.194;9.894;2023-04-29T07:34:51;100376.94;;;9.07;100.00
13690;BME280;6917;52.194;9.894;2023-04-29T07:37:17;100379.03;;;9.10;100.00
13690;BME280;6917;52.194;9.894;2023-04-29T07:39:42;100375.72;;;9.13;100.00
13690;BME280;6917;52.194;9.894;2023-04-29T07:42:07;100380.97;;;9.23;100.00
13690;BME280;6917;52.194;9.894;2023-04-29T07:44:33;100384.78;;;9.36;100.00
13690;BME280;6917;52.194;9.894;2023-04-29T07:46:58;100382.38;;;9.34;100.00
13690;BME280;6917;52.194;9.894;2023-04-29T07:49:23;100396.47;;;9.50;100.00
13690;BME280;6917;52.194;9.894;2023-04-29T07:51:50;100399.50;;;9.62;100.00
13690;BME280;6917;52.194;9.894;2023-04-29T07:54:15;100400.72;;;9.70;100.00
13690;BME280;6917;52.194;9.894;2023-04-29T07:56:40;100408.69;;;9.52;100.00
13690;BME280;6917;52.194;9.894;2023-04-29T07:59:06;100406.66;;;9.72;100.00
13690;BME280;6917;52.194;9.894;2023-04-29T08:01:31;100406.69;;;9.94;100.00
13690;BME280;6917;52.194;9.894;2023-04-29T08:03:57;100415.34;;;10.10;100.00
13690;BME280;6917;52.194;9.894;2023-04-29T08:06:22;100415.06;;;10.34;100.00
13690;BME280;6917;52.194;9.894;2023-04-29T08:08:47;100417.69;;;10.39;100.00
13690;BME280;6917;52.194;9.894;2023-04-29T08:11:19;100419.91;;;10.37;100.00
13690;BME280;6917;52.194;9.894;2023-04-29T08:13:45;100422.03;;;10.40;100.00
13690;BME280;6917;52.194;9.894;2023-04-29T08:16:11;100427.41;;;10.54;100.00
13690;BME280;6917;52.194;9.894;2023-04-29T08:18:37;100424.75;;;10.62;100.00
13690;BME280;6917;52.194;9.894;2023-04-29T08:21:02;100436.00;;;10.61;100.00
13690;BME280;6917;52.194;9.894;2023-04-29T08:23:28;100437.16;;;10.68;100.00
13690;BME280;6917;52.194;9.894;2023-04-29T08:25:54;100440.03;;;10.63;100.00
13690;BME280;6917;52.194;9.894;2023-04-29T08:28:20;100438.97;;;10.73;100.00
13690;BME280;6917;52.194;9.894;2023-04-29T08:30:46;100446.22;;;10.78;100.00
13690;BME280;6917;52.194;9.894;2023-04-29T08:33:12;100454.84;;;10.93;100.00
13690;BME280;6917;52.194;9.894;2023-04-29T08:35:39;100455.81;;;10.97;100.00
13690;BME280;6917;52.194;9.894;2023-04-29T08:38:04;100457.31;;;10.81;100.00
13690;BME280;6917;52.194;9.894;2023-04-29T08:40:35;100464.84;;;10.76;100.00
13690;BME280;6917;52.194;9.894;2023-04-29T08:43:05;100469.38;;;11.02;100.00
13690;BME280;6917;52.194;9.894;2023-04-29T08:45:34;100473.47;;;11.22;100.00
13690;BME280;6917;52.194;9.894;2023-04-29T08:48:01;100473.22;;;11.41;100.00
13690;BME280;6917;52.194;9.894;2023-04-29T08:50:29;100469.41;;;11.51;100.00
13690;BME280;6917;52.194;9.894;2023-04-29T08:52:54;100464.91;;;11.55;100.00
13690;BME280;6917;52.194;9.894;2023-04-29T08:55:20;100473.47;;;11.71;100.00
13690;BME280;6917;52.194;9.894;2023-04-29T08:57:47;100486.09;;;11.80;100.00
13690;BME280;6917;52.194;9.894;2023-04-29T09:00:14;100481.25;;;11.38;100.00
13690;BME280;6917;52.194;9.894;2023-04-29T09:02:44;100480.34;;;11.51;100.00
13690;BME280;6917;52.194;9.894;2023-04-29T09:05:11;100481.03;;;11.65;100.00
13690;BME280;6917;52.194;9.894;2023-04-29T09:07:37;100492.38;;;11.81;100.00
13690;BME280;6917;52.194;9.894;2023-04-29T09:10:04;100478.94;;;11.71;98.29
13690;BME280;6917;52.194;9.894;2023-04-29T09:12:30;100488.28;;;11.70;96.85
13690;BME280;6917;52.194;9.894;2023-04-29T09:14:56;100495.09;;;11.72;96.60
13690;BME280;6917;52.194;9.894;2023-04-29T09:17:46;100496.53;;;11.78;95.71
13690;BME280;6917;52.194;9.894;2023-04-29T09:22:51;100495.59;;;11.83;95.49
13690;BME280;6917;52.194;9.894;2023-04-29T09:25:17;100506.59;;;12.00;96.31
13690;BME280;6917;52.194;9.894;2023-04-29T09:27:42;100503.69;;;11.97;95.84
13690;BME280;6917;52.194;9.894;2023-04-29T09:30:08;100509.31;;;12.00;94.96
13690;BME280;6917;52.194;9.894;2023-04-29T09:32:34;100508.72;;;12.03;94.74
13690;BME280;6917;52.194;9.894;2023-04-29T09:35:25;100511.94;;;12.14;94.66
13690;BME280;6917;52.194;9.894;2023-04-29T09:37:52;100511.94;;;12.23;94.03
13690;BME280;6917;52.194;9.894;2023-04-29T09:42:54;100515.38;;;12.45;93.34
13690;BME280;6917;52.194;9.894;2023-04-29T09:48:09;100514.22;;;12.55;89.95
13690;BME280;6917;52.194;9.894;2023-04-29T09:50:35;100508.25;;;12.36;88.48
13690;BME280;6917;52.194;9.894;2023-04-29T09:53:05;100517.28;;;12.62;90.13
13690;BME280;6917;52.194;9.894;2023-04-29T09:55:34;100518.72;;;12.86;89.88
13690;BME280;6917;52.194;9.894;2023-04-29T09:57:59;100511.94;;;12.92;89.05
13690;BME280;6917;52.194;9.894;2023-04-29T10:00:30;100513.41;;;12.89;87.60
13690;BME280;6917;52.194;9.894;2023-04-29T10:02:58;100510.81;;;12.84;86.89
13690;BME280;6917;52.194;9.894;2023-04-29T10:05:26;100516.94;;;12.90;86.16
13690;BME280;6917;52.194;9.894;2023-04-29T10:07:53;100511.59;;;12.85;85.09
13690;BME280;6917;52.194;9.894;2023-04-29T10:10:20;100516.94;;;12.81;85.06
13690;BME280;6917;52.194;9.894;2023-04-29T10:12:47;100520.81;;;12.89;85.38
13690;BME280;6917;52.194;9.894;2023-04-29T10:15:26;100510.19;;;12.61;84.71
13690;BME280;6917;52.194;9.894;2023-04-29T10:20:45;100518.88;;;12.89;85.21
13690;BME280;6917;52.194;9.894;2023-04-29T10:23:12;100535.66;;;12.88;86.45
13690;BME280;6917;52.194;9.894;2023-04-29T10:25:38;100529.84;;;12.72;86.42
13690;BME280;6917;52.194;9.894;2023-04-29T10:28:05;100536.63;;;12.66;87.03
13690;BME280;6917;52.194;9.894;2023-04-29T10:30:33;100541.16;;;12.79;87.47
13690;BME280;6917;52.194;9.894;2023-04-29T10:33:00;100536.94;;;12.90;87.77
13690;BME280;6917;52.194;9.894;2023-04-29T10:35:26;100547.09;;;12.81;86.39
13690;BME280;6917;52.194;9.894;2023-04-29T10:37:52;100544.06;;;12.74;85.86
13690;BME280;6917;52.194;9.894;2023-04-29T10:42:49;100542.91;;;12.58;85.22
13690;BME280;6917;52.194;9.894;2023-04-29T10:45:25;100549.03;;;12.55;85.35
13690;BME280;6917;52.194;9.894;2023-04-29T10:50:27;100553.25;;;12.78;86.50
13690;BME280;6917;52.194;9.894;2023-04-29T10:52:56;100545.19;;;12.64;84.79
13690;BME280;6917;52.194;9.894;2023-04-29T10:55:22;100543.56;;;12.63;84.67
13690;BME280;6917;52.194;9.894;2023-04-29T10:57:50;100538.56;;;12.65;84.09
13690;BME280;6917;52.194;9.894;2023-04-29T11:00:33;100555.97;;;12.78;84.96
13690;BME280;6917;52.194;9.894;2023-04-29T11:03:04;100562.91;;;12.67;84.04
13690;BME280;6917;52.194;9.894;2023-04-29T11:05:34;100557.75;;;12.65;83.74
13690;BME280;6917;52.194;9.894;2023-04-29T11:08:14;100555.81;;;12.66;83.57
13690;BME280;6917;52.194;9.894;2023-04-29T11:10:47;100545.50;;;12.71;82.86
13690;BME280;6917;52.194;9.894;2023-04-29T11:13:27;100549.84;;;12.81;81.26
13690;BME280;6917;52.194;9.894;2023-04-29T11:16:02;100541.28;;;13.00;80.86
13690;BME280;6917;52.194;9.894;2023-04-29T11:18:28;100548.03;;;13.11;80.38
13690;BME280;6917;52.194;9.894;2023-04-29T11:23:38;100550.19;;;12.88;79.18
13690;BME280;6917;52.194;9.894;2023-04-29T11:26:05;100540.13;;;13.09;79.88
13690;BME280;6917;52.194;9.894;2023-04-29T11:28:31;100528.34;;;13.26;79.86
13690;BME280;6917;52.194;9.894;2023-04-29T11:30:57;100544.47;;;13.28;79.45
13690;BME280;6917;52.194;9.894;2023-04-29T11:33:23;100546.59;;;13.31;79.64
13690;BME280;6917;52.194;9.894;2023-04-29T11:35:48;100549.66;;;13.21;79.92
13690;BME280;6917;52.194;9.894;2023-04-29T11:38:14;100530.97;;;12.97;75.25
13690;BME280;6917;52.194;9.894;2023-04-29T11:40:48;100553.53;;;12.85;75.58
13690;BME280;6917;52.194;9.894;2023-04-29T11:43:18;100547.44;;;12.62;76.06
13690;BME280;6917;52.194;9.894;2023-04-29T11:45:45;100556.31;;;12.68;76.62
13690;BME280;6917;52.194;9.894;2023-04-29T11:48:22;100565.03;;;12.61;77.14
13690;BME280;6917;52.194;9.894;2023-04-29T11:50:54;100567.59;;;12.66;78.16
13690;BME280;6917;52.194;9.894;2023-04-29T11:53:22;100570.16;;;12.80;78.65
13690;BME280;6917;52.194;9.894;2023-04-29T11:55:49;100565.66;;;12.84;77.90
13690;BME280;6917;52.194;9.894;2023-04-29T11:58:16;100565.81;;;12.96;77.57
13690;BME280;6917;52.194;9.894;2023-04-29T12:00:42;100559.34;;;13.09;77.20
13690;BME280;6917;52.194;9.894;2023-04-29T12:03:13;100553.56;;;13.02;75.83
13690;BME280;6917;52.194;9.894;2023-04-29T12:05:45;100561.13;;;13.23;75.16
13690;BME280;6917;52.194;9.894;2023-04-29T12:08:10;100550.28;;;13.18;73.24
13690;BME280;6917;52.194;9.894;2023-04-29T12:10:35;100540.78;;;13.32;72.91
13690;BME280;6917;52.194;9.894;2023-04-29T12:13:02;100545.25;;;13.37;71.99
13690;BME280;6917;52.194;9.894;2023-04-29T12:15:28;100545.41;;;13.40;71.40
13690;BME280;6917;52.194;9.894;2023-04-29T12:17:54;100540.25;;;13.39;71.17
13690;BME280;6917;52.194;9.894;2023-04-29T12:20:20;100545.06;;;13.51;71.72
13690;BME280;6917;52.194;9.894;2023-04-29T12:22:45;100546.16;;;13.58;71.16
13690;BME280;6917;52.194;9.894;2023-04-29T12:25:11;100546.34;;;13.53;69.98
13690;BME280;6917;52.194;9.894;2023-04-29T12:27:38;100552.03;;;13.48;69.95
13690;BME280;6917;52.194;9.894;2023-04-29T12:30:08;100553.25;;;13.59;69.88
13690;BME280;6917;52.194;9.894;2023-04-29T12:32:34;100548.25;;;13.61;69.60
13690;BME280;6917;52.194;9.894;2023-04-29T12:35:00;100557.94;;;13.97;71.47
13690;BME280;6917;52.194;9.894;2023-04-29T12:37:26;100551.94;;;14.04;69.75
13690;BME280;6917;52.194;9.894;2023-04-29T12:39:53;100563.88;;;14.08;69.83
13690;BME280;6917;52.194;9.894;2023-04-29T12:42:19;100558.63;;;14.15;70.38
13690;BME280;6917;52.194;9.894;2023-04-29T12:44:45;100561.16;;;13.99;69.16
13690;BME280;6917;52.194;9.894;2023-04-29T12:47:14;100562.25;;;14.07;69.73
13690;BME280;6917;52.194;9.894;2023-04-29T12:49:41;100561.25;;;14.11;69.80
13690;BME280;6917;52.194;9.894;2023-04-29T12:52:07;100564.19;;;14.06;69.16
13690;BME280;6917;52.194;9.894;2023-04-29T12:54:35;100561.97;;;13.99;68.06
13690;BME280;6917;52.194;9.894;2023-04-29T12:57:01;100563.50;;;13.80;68.50
13690;BME280;6917;52.194;9.894;2023-04-29T12:59:27;100570.41;;;13.94;69.96
13690;BME280;6917;52.194;9.894;2023-04-29T13:01:52;100564.94;;;13.86;69.83
13690;BME280;6917;52.194;9.894;2023-04-29T13:04:17;100572.91;;;13.70;69.96
13690;BME280;6917;52.194;9.894;2023-04-29T13:06:42;100571.31;;;13.69;69.60
13690;BME280;6917;52.194;9.894;2023-04-29T13:09:08;100574.09;;;13.60;70.11
13690;BME280;6917;52.194;9.894;2023-04-29T13:11:37;100572.47;;;13.59;69.61
13690;BME280;6917;52.194;9.894;2023-04-29T13:14:03;100578.88;;;13.72;70.59
13690;BME280;6917;52.194;9.894;2023-04-29T13:16:31;100567.63;;;13.56;69.33
13690;BME280;6917;52.194;9.894;2023-04-29T13:18:57;100566.97;;;13.59;69.39